createdAt,value
2023-10-19T00:01:13.119Z,6.18
2023-10-19T00:03:40.212Z,5.68
2023-10-19T00:06:07.247Z,5.82
2023-10-19T00:08:43.339Z,5.38
2023-10-19T00:13:40.049Z,5.32
2023-10-19T00:16:13.881Z,5.53
2023-10-19T00:18:44.409Z,5.32
2023-10-19T00:21:21.620Z,5.30
2023-10-19T00:23:50.181Z,5.22
2023-10-19T00:26:20.715Z,4.88
2023-10-19T00:28:58.734Z,5.30
2023-10-19T00:31:30.059Z,5.80
2023-10-19T00:33:58.731Z,5.60
2023-10-19T00:36:27.363Z,5.18
2023-10-19T00:38:55.070Z,5.50
2023-10-19T00:41:32.691Z,5.30
2023-10-19T00:44:08.534Z,5.07
2023-10-19T00:46:44.841Z,4.72
2023-10-19T00:49:16.206Z,4.53
2023-10-19T00:51:56.358Z,4.80
2023-10-19T00:54:44.912Z,4.65
2023-10-19T00:57:13.144Z,4.90
2023-10-19T00:59:54.790Z,4.60
2023-10-19T01:02:25.795Z,4.78
2023-10-19T01:04:58.010Z,4.50
2023-10-19T01:07:28.952Z,4.82
2023-10-19T01:09:58.062Z,4.57
2023-10-19T01:12:36.446Z,4.78
2023-10-19T01:15:13.907Z,4.43
2023-10-19T01:17:45.232Z,5.10
2023-10-19T01:20:35.022Z,4.57
2023-10-19T01:23:09.113Z,4.68
2023-10-19T01:25:56.948Z,4.18
2023-10-19T01:28:51.080Z,4.40
2023-10-19T01:31:31.314Z,4.15
2023-10-19T01:34:00.244Z,4.10
2023-10-19T01:36:28.405Z,4.40
2023-10-19T01:39:02.052Z,4.30
2023-10-19T01:41:32.384Z,4.20
2023-10-19T01:44:05.975Z,3.67
2023-10-19T01:46:35.383Z,4.05
2023-10-19T01:49:04.193Z,3.88
2023-10-19T01:51:44.592Z,4.05
2023-10-19T01:54:12.514Z,4.55
2023-10-19T01:56:40.365Z,5.18
2023-10-19T01:59:10.400Z,4.30
2023-10-19T02:01:39.427Z,4.32
2023-10-19T02:04:10.451Z,4.22
2023-10-19T02:06:40.192Z,4.43
2023-10-19T02:09:19.409Z,4.25
2023-10-19T02:11:48.675Z,4.47
2023-10-19T02:14:20.735Z,5.75
2023-10-19T02:17:00.563Z,5.10
2023-10-19T02:19:30.090Z,4.78
2023-10-19T02:21:59.963Z,4.50
2023-10-19T02:27:30.212Z,4.15
2023-10-19T02:30:02.781Z,4.28
2023-10-19T02:32:30.256Z,5.18
2023-10-19T02:34:58.550Z,5.03
2023-10-19T02:37:26.518Z,5.30
2023-10-19T02:39:53.788Z,4.75
2023-10-19T02:42:23.441Z,5.47
2023-10-19T02:44:51.934Z,5.15
2023-10-19T02:47:20.259Z,4.20
2023-10-19T02:49:52.731Z,4.80
2023-10-19T02:52:21.089Z,5.72
2023-10-19T02:54:48.350Z,5.53
2023-10-19T02:57:15.929Z,5.68
2023-10-19T02:59:43.137Z,6.13
2023-10-19T03:02:12.942Z,5.97
2023-10-19T03:04:43.296Z,5.57
2023-10-19T03:07:13.321Z,6.65
2023-10-19T03:09:40.672Z,6.88
2023-10-19T03:12:11.801Z,6.65
2023-10-19T03:14:39.090Z,7.00
2023-10-19T03:17:09.741Z,6.70
2023-10-19T03:19:37.109Z,5.60
2023-10-19T03:22:07.288Z,6.30
2023-10-19T03:24:37.947Z,6.40
2023-10-19T03:27:14.450Z,5.93
2023-10-19T03:29:43.352Z,6.72
2023-10-19T03:32:10.830Z,6.50
2023-10-19T03:34:40.230Z,6.07
2023-10-19T03:37:11.254Z,6.82
2023-10-19T03:39:39.205Z,7.03
2023-10-19T03:42:07.498Z,6.50
2023-10-19T03:44:55.445Z,5.32
2023-10-19T03:47:27.136Z,5.32
2023-10-19T03:49:55.005Z,6.45
2023-10-19T03:52:22.420Z,6.72
2023-10-19T03:54:50.723Z,6.47
2023-10-19T03:57:20.793Z,7.00
2023-10-19T03:59:53.896Z,6.18
2023-10-19T04:02:31.347Z,7.63
2023-10-19T04:04:59.137Z,7.07
2023-10-19T04:07:32.500Z,6.78
2023-10-19T04:09:59.990Z,6.43
2023-10-19T04:12:32.257Z,7.97
2023-10-19T04:15:12.541Z,7.93
2023-10-19T04:17:40.835Z,8.65
2023-10-19T04:20:18.548Z,7.10
2023-10-19T04:22:50.135Z,8.38
2023-10-19T04:25:20.248Z,8.18
2023-10-19T04:27:48.272Z,7.25
2023-10-19T04:30:23.534Z,7.43
2023-10-19T04:32:52.016Z,6.75
2023-10-19T04:35:25.729Z,7.22
2023-10-19T04:37:55.974Z,7.97
2023-10-19T04:40:25.344Z,7.00
2023-10-19T04:42:57.282Z,7.50
2023-10-19T04:45:24.627Z,7.22
2023-10-19T04:47:57.761Z,7.80
2023-10-19T04:50:24.852Z,7.75
2023-10-19T04:52:52.147Z,6.88
2023-10-19T04:55:19.705Z,8.07
2023-10-19T04:57:46.712Z,7.95
2023-10-19T05:00:16.229Z,8.50
2023-10-19T05:02:45.853Z,8.85
2023-10-19T05:05:15.010Z,9.63
2023-10-19T05:07:42.085Z,8.43
2023-10-19T05:10:10.018Z,7.50
2023-10-19T05:12:37.000Z,7.45
2023-10-19T05:15:07.117Z,6.88
2023-10-19T05:17:34.211Z,7.82
2023-10-19T05:20:01.729Z,8.50
2023-10-19T05:22:34.420Z,8.77
2023-10-19T05:25:20.774Z,8.27
2023-10-19T05:27:50.887Z,8.30
2023-10-19T05:30:19.276Z,8.70
2023-10-19T05:32:48.032Z,8.82
2023-10-19T05:35:24.209Z,8.65
2023-10-19T05:37:51.561Z,8.93
2023-10-19T05:40:20.371Z,9.02
2023-10-19T05:42:47.882Z,9.60
2023-10-19T05:45:17.746Z,8.95
2023-10-19T05:47:47.690Z,8.65
2023-10-19T05:50:17.327Z,9.70
2023-10-19T05:52:45.290Z,10.82
2023-10-19T05:55:12.931Z,10.57
2023-10-19T05:57:44.152Z,9.65
2023-10-19T06:00:15.320Z,9.23
2023-10-19T06:02:47.367Z,9.60
2023-10-19T06:05:16.799Z,12.43
2023-10-19T06:07:49.060Z,9.75
2023-10-19T06:10:21.512Z,10.55
2023-10-19T06:12:51.103Z,10.98
2023-10-19T06:15:22.064Z,11.43
2023-10-19T06:17:50.821Z,11.18
2023-10-19T06:20:21.244Z,10.60
2023-10-19T06:22:51.923Z,11.50
2023-10-19T06:25:25.872Z,11.82
2023-10-19T06:27:55.315Z,11.70
2023-10-19T06:30:24.261Z,11.63
2023-10-19T06:32:58.527Z,11.23
2023-10-19T06:35:25.625Z,10.27
2023-10-19T06:37:56.427Z,11.18
2023-10-19T06:40:27.781Z,10.55
2023-10-19T06:42:59.598Z,10.95
2023-10-19T06:45:27.067Z,10.75
2023-10-19T06:47:54.338Z,9.88
2023-10-19T06:50:23.440Z,9.98
2023-10-19T06:52:51.222Z,10.75
2023-10-19T06:55:21.061Z,10.93
2023-10-19T06:57:53.883Z,10.45
2023-10-19T07:00:23.377Z,10.70
2023-10-19T07:02:54.512Z,10.35
2023-10-19T07:05:23.672Z,10.93
2023-10-19T07:07:56.326Z,9.70
2023-10-19T07:10:25.299Z,10.98
2023-10-19T07:13:02.133Z,10.18
2023-10-19T07:15:31.322Z,10.02
2023-10-19T07:17:59.722Z,10.00
2023-10-19T07:20:27.805Z,9.48
2023-10-19T07:23:07.025Z,8.77
2023-10-19T07:25:44.756Z,10.43
2023-10-19T07:28:17.231Z,9.35
2023-10-19T07:30:45.346Z,11.77
2023-10-19T07:33:19.375Z,11.07
2023-10-19T07:35:48.195Z,9.57
2023-10-19T07:38:15.995Z,10.15
2023-10-19T07:40:46.484Z,9.65
2023-10-19T07:43:13.587Z,10.00
2023-10-19T07:45:44.493Z,9.82
2023-10-19T07:48:11.983Z,11.02
2023-10-19T07:50:43.762Z,10.55
2023-10-19T07:53:11.709Z,12.40
2023-10-19T07:55:40.286Z,11.77
2023-10-19T07:58:08.145Z,13.70
2023-10-19T08:00:35.639Z,13.65
2023-10-19T08:03:07.490Z,11.52
2023-10-19T08:05:35.442Z,13.45
2023-10-19T08:08:10.825Z,13.07
2023-10-19T08:10:40.899Z,14.77
2023-10-19T08:13:09.366Z,13.60
2023-10-19T08:15:36.302Z,15.65
2023-10-19T08:18:03.329Z,14.55
2023-10-19T08:20:33.427Z,13.50
2023-10-19T08:23:06.548Z,13.77
2023-10-19T08:25:48.601Z,13.95
2023-10-19T08:28:19.797Z,14.32
2023-10-19T08:30:58.104Z,13.35
2023-10-19T08:33:27.454Z,14.40
2023-10-19T08:35:55.372Z,13.38
2023-10-19T08:38:23.070Z,13.75
2023-10-19T08:40:54.539Z,13.43
2023-10-19T08:43:22.778Z,14.48
2023-10-19T08:45:50.529Z,13.05
2023-10-19T08:48:18.332Z,13.10
2023-10-19T08:50:47.677Z,13.27
2023-10-19T08:53:15.679Z,13.23
2023-10-19T08:55:49.275Z,15.57
2023-10-19T08:58:19.330Z,13.52
2023-10-19T09:00:49.120Z,12.40
2023-10-19T09:03:18.633Z,13.15
2023-10-19T09:05:48.193Z,12.75
2023-10-19T09:08:21.128Z,12.23
2023-10-19T09:10:50.286Z,11.85
2023-10-19T09:13:20.654Z,12.27
2023-10-19T09:15:50.710Z,10.18
2023-10-19T09:18:23.368Z,12.43
2023-10-19T09:20:55.450Z,11.15
2023-10-19T09:23:24.133Z,11.45
2023-10-19T09:25:54.146Z,11.73
2023-10-19T09:28:23.257Z,11.52
2023-10-19T09:30:51.744Z,12.13
2023-10-19T09:33:19.449Z,12.43
2023-10-19T09:35:51.806Z,10.45
2023-10-19T09:38:28.627Z,13.10
2023-10-19T09:41:01.436Z,11.05
2023-10-19T09:43:38.563Z,11.82
2023-10-19T09:46:10.321Z,10.77
2023-10-19T09:48:47.023Z,11.20
2023-10-19T09:51:17.846Z,11.77
2023-10-19T09:53:56.728Z,11.13
2023-10-19T09:56:33.712Z,11.68
2023-10-19T09:59:07.435Z,10.43
2023-10-19T10:02:06.029Z,10.00
2023-10-19T10:04:41.008Z,9.23
2023-10-19T10:07:10.672Z,10.30
2023-10-19T10:09:41.625Z,9.52
2023-10-19T10:12:26.388Z,10.45
2023-10-19T10:14:59.777Z,9.80
2023-10-19T10:17:28.351Z,9.52
2023-10-19T10:19:58.336Z,10.00
2023-10-19T10:22:25.408Z,10.40
2023-10-19T10:24:57.228Z,9.52
2023-10-19T10:27:24.837Z,9.50
2023-10-19T10:30:00.283Z,10.35
2023-10-19T10:32:51.859Z,8.88
2023-10-19T10:35:37.776Z,8.50
2023-10-19T10:38:15.761Z,8.55
2023-10-19T10:40:51.559Z,10.90
2023-10-19T10:43:20.016Z,9.75
2023-10-19T10:45:46.993Z,9.38
2023-10-19T10:48:14.826Z,8.68
2023-10-19T10:50:42.884Z,8.73
2023-10-19T10:53:12.743Z,8.95
2023-10-19T10:55:40.706Z,7.95
2023-10-19T10:58:08.009Z,8.88
2023-10-19T11:00:35.676Z,9.38
2023-10-19T11:03:06.168Z,9.23
2023-10-19T11:05:34.684Z,8.90
2023-10-19T11:08:10.849Z,9.80
2023-10-19T11:10:38.242Z,8.98
2023-10-19T11:13:10.028Z,9.93
2023-10-19T11:15:38.277Z,9.20
2023-10-19T11:18:08.690Z,9.63
2023-10-19T11:20:36.886Z,9.48
2023-10-19T11:23:04.575Z,8.60
2023-10-19T11:25:33.414Z,8.48
2023-10-19T11:28:17.380Z,8.52
2023-10-19T11:30:44.720Z,10.85
2023-10-19T11:33:12.333Z,8.63
2023-10-19T11:35:39.860Z,7.93
2023-10-19T11:38:07.617Z,8.00
2023-10-19T11:40:34.920Z,7.88
2023-10-19T11:43:02.263Z,8.65
2023-10-19T11:45:30.328Z,7.45
2023-10-19T11:47:58.420Z,8.25
2023-10-19T11:50:25.931Z,7.97
2023-10-19T11:52:54.248Z,8.68
2023-10-19T11:55:22.797Z,8.23
2023-10-19T11:57:50.238Z,8.40
2023-10-19T12:00:25.018Z,7.50
2023-10-19T12:02:53.509Z,8.10
2023-10-19T12:05:20.748Z,7.70
2023-10-19T12:07:47.736Z,7.75
2023-10-19T12:10:14.752Z,9.38
2023-10-19T12:12:58.515Z,8.63
2023-10-19T12:15:31.154Z,8.23
2023-10-19T12:17:58.754Z,8.30
2023-10-19T12:20:25.963Z,8.68
2023-10-19T12:22:56.395Z,10.18
2023-10-19T12:25:39.494Z,10.50
2023-10-19T12:28:07.062Z,9.35
2023-10-19T12:30:38.123Z,10.75
2023-10-19T12:33:14.687Z,9.80
2023-10-19T12:35:46.249Z,10.57
2023-10-19T12:38:19.129Z,10.10
2023-10-19T12:40:48.783Z,9.45
2023-10-19T12:43:16.581Z,9.85
2023-10-19T12:45:45.389Z,9.48
2023-10-19T12:48:12.766Z,9.43
2023-10-19T12:50:40.362Z,8.68
2023-10-19T12:53:08.021Z,9.05
2023-10-19T12:55:35.859Z,10.15
2023-10-19T12:58:08.599Z,9.60
2023-10-19T13:00:45.064Z,10.80
2023-10-19T13:03:20.140Z,10.68
2023-10-19T13:05:48.084Z,9.95
2023-10-19T13:08:16.072Z,9.55
2023-10-19T13:10:44.975Z,11.57
2023-10-19T13:13:14.435Z,11.20
2023-10-19T13:15:43.461Z,12.25
2023-10-19T13:18:11.742Z,11.00
2023-10-19T13:20:40.089Z,10.18
2023-10-19T13:23:12.793Z,11.23
2023-10-19T13:25:47.656Z,10.57
2023-10-19T13:28:15.458Z,11.70
2023-10-19T13:30:50.616Z,11.65
2023-10-19T13:33:19.559Z,10.45
2023-10-19T13:35:47.263Z,10.23
2023-10-19T13:38:18.234Z,10.80
2023-10-19T13:40:50.150Z,10.18
2023-10-19T13:43:21.188Z,10.20
2023-10-19T13:45:48.994Z,10.90
2023-10-19T13:48:16.770Z,9.75
2023-10-19T13:50:49.696Z,10.65
2023-10-19T13:53:19.502Z,10.98
2023-10-19T13:55:46.946Z,9.40
2023-10-19T13:58:14.248Z,9.85
2023-10-19T14:00:48.915Z,10.90
2023-10-19T14:03:16.862Z,9.77
2023-10-19T14:05:49.663Z,10.27
2023-10-19T14:08:19.031Z,11.05
2023-10-19T14:10:46.348Z,11.55
2023-10-19T14:13:14.142Z,10.68
2023-10-19T14:15:41.825Z,11.05
2023-10-19T14:18:09.485Z,11.13
2023-10-19T14:20:39.972Z,11.55
2023-10-19T14:23:07.184Z,12.10
2023-10-19T14:25:39.594Z,11.32
2023-10-19T14:28:08.427Z,12.80
2023-10-19T14:30:35.762Z,11.15
2023-10-19T14:33:03.596Z,11.43
2023-10-19T14:35:30.937Z,11.25
2023-10-19T14:38:00.258Z,11.40
2023-10-19T14:40:29.426Z,11.98
2023-10-19T14:42:58.108Z,11.40
2023-10-19T14:45:30.006Z,12.48
2023-10-19T14:48:02.626Z,10.90
2023-10-19T14:50:31.057Z,12.07
2023-10-19T14:52:59.088Z,14.35
2023-10-19T14:55:26.773Z,12.45
2023-10-19T14:57:55.829Z,13.07
2023-10-19T15:00:27.371Z,13.82
2023-10-19T15:02:56.515Z,13.63
2023-10-19T15:05:28.658Z,14.85
2023-10-19T15:07:56.804Z,14.95
2023-10-19T15:10:28.945Z,13.23
2023-10-19T15:12:57.242Z,12.80
2023-10-19T15:15:24.427Z,13.35
2023-10-19T15:17:54.542Z,12.73
2023-10-19T15:20:26.370Z,13.38
2023-10-19T15:22:55.320Z,12.90
2023-10-19T15:25:25.473Z,12.27
2023-10-19T15:27:53.615Z,11.80
2023-10-19T15:30:22.419Z,12.60
2023-10-19T15:32:51.168Z,11.48
2023-10-19T15:35:23.291Z,12.70
2023-10-19T15:37:57.779Z,12.35
2023-10-19T15:40:26.428Z,11.95
2023-10-19T15:42:55.210Z,11.15
2023-10-19T15:45:24.500Z,10.63
2023-10-19T15:47:59.796Z,12.07
2023-10-19T15:50:27.522Z,11.48
2023-10-19T15:52:57.002Z,12.27
2023-10-19T15:55:24.212Z,12.15
2023-10-19T15:57:52.207Z,12.10
2023-10-19T16:00:21.962Z,13.70
2023-10-19T16:02:53.173Z,12.95
2023-10-19T16:05:20.748Z,12.57
2023-10-19T16:07:48.394Z,12.02
2023-10-19T16:10:16.398Z,12.90
2023-10-19T16:12:44.443Z,12.23
2023-10-19T16:15:13.590Z,12.50
2023-10-19T16:17:42.346Z,12.27
2023-10-19T16:20:16.740Z,12.48
2023-10-19T16:22:44.422Z,13.07
2023-10-19T16:25:12.404Z,12.55
2023-10-19T16:27:39.936Z,12.38
2023-10-19T16:30:13.869Z,12.57
2023-10-19T16:32:42.162Z,11.40
2023-10-19T16:35:10.722Z,12.52
2023-10-19T16:37:38.120Z,14.02
2023-10-19T16:40:08.668Z,12.60
2023-10-19T16:42:35.885Z,16.20
2023-10-19T16:45:04.877Z,14.02
2023-10-19T16:47:32.335Z,12.07
2023-10-19T16:50:00.463Z,12.98
2023-10-19T16:52:28.227Z,12.95
2023-10-19T16:54:55.541Z,14.93
2023-10-19T16:57:23.149Z,16.00
2023-10-19T16:59:53.702Z,17.52
2023-10-19T17:02:21.577Z,17.95
2023-10-19T17:04:53.173Z,19.50
2023-10-19T17:07:20.429Z,16.45
2023-10-19T17:09:47.687Z,17.45
2023-10-19T17:12:15.016Z,17.75
2023-10-19T17:14:43.257Z,16.08
2023-10-19T17:17:10.358Z,16.77
2023-10-19T17:19:37.482Z,19.65
2023-10-19T17:22:04.800Z,19.15
2023-10-19T17:24:32.060Z,16.85
2023-10-19T17:27:02.346Z,17.45
2023-10-19T17:29:29.661Z,18.02
2023-10-19T17:31:59.274Z,17.45
2023-10-19T17:34:28.092Z,15.85
2023-10-19T17:36:55.323Z,15.68
2023-10-19T17:39:24.175Z,16.83
2023-10-19T17:41:51.212Z,17.23
2023-10-19T17:44:19.378Z,15.88
2023-10-19T17:46:47.279Z,15.75
2023-10-19T17:49:16.672Z,15.15
2023-10-19T17:51:43.786Z,15.55
2023-10-19T17:54:12.275Z,16.23
2023-10-19T17:56:39.440Z,16.60
2023-10-19T17:59:09.175Z,16.70
2023-10-19T18:01:37.289Z,17.70
2023-10-19T18:04:05.231Z,17.92
2023-10-19T18:06:32.335Z,17.90
2023-10-19T18:09:00.816Z,17.27
2023-10-19T18:11:28.679Z,18.20
2023-10-19T18:13:56.200Z,17.60
2023-10-19T18:16:23.289Z,17.58
2023-10-19T18:18:50.432Z,17.45
2023-10-19T18:21:17.551Z,18.50
2023-10-19T18:23:47.906Z,17.98
2023-10-19T18:26:17.095Z,18.58
2023-10-19T18:28:45.570Z,19.52
2023-10-19T18:31:12.885Z,19.17
2023-10-19T18:33:42.165Z,20.35
2023-10-19T18:36:15.121Z,20.08
2023-10-19T18:38:42.856Z,18.73
2023-10-19T18:41:10.944Z,19.02
2023-10-19T18:43:38.013Z,19.23
2023-10-19T18:46:05.436Z,19.20
2023-10-19T18:48:33.089Z,19.33
2023-10-19T18:51:02.525Z,19.90
2023-10-19T18:53:29.983Z,20.33
2023-10-19T18:55:58.436Z,20.02
2023-10-19T18:58:27.016Z,19.38
2023-10-19T19:00:55.044Z,18.65
2023-10-19T19:03:24.011Z,18.15
2023-10-19T19:06:01.666Z,18.80
2023-10-19T19:08:36.794Z,19.02
2023-10-19T19:11:12.480Z,18.13
2023-10-19T19:13:41.474Z,17.50
2023-10-19T19:16:08.885Z,19.65
2023-10-19T19:18:37.261Z,22.63
2023-10-19T19:21:09.279Z,22.48
2023-10-19T19:23:41.749Z,20.95
2023-10-19T19:26:10.279Z,20.65
2023-10-19T19:28:40.340Z,19.27
2023-10-19T19:31:07.844Z,19.50
2023-10-19T19:33:39.197Z,17.80
2023-10-19T19:36:06.424Z,20.05
2023-10-19T19:38:33.703Z,22.58
2023-10-19T19:41:00.859Z,19.58
2023-10-19T19:43:28.585Z,20.88
2023-10-19T19:45:55.838Z,19.77
2023-10-19T19:48:24.395Z,19.90
2023-10-19T19:50:52.113Z,18.60
2023-10-19T19:53:19.229Z,18.83
2023-10-19T19:55:48.112Z,21.42
2023-10-19T19:58:22.533Z,20.70
2023-10-19T20:00:52.352Z,18.98
2023-10-19T20:03:19.630Z,18.50
2023-10-19T20:05:46.832Z,19.80
2023-10-19T20:08:14.244Z,19.20
2023-10-19T20:10:44.238Z,20.00
2023-10-19T20:13:15.552Z,18.90
2023-10-19T20:15:43.860Z,19.50
2023-10-19T20:18:19.746Z,19.35
2023-10-19T20:20:47.273Z,18.38
2023-10-19T20:23:14.825Z,18.27
2023-10-19T20:25:41.946Z,19.02
2023-10-19T20:28:10.247Z,19.55
2023-10-19T20:30:37.954Z,19.92
2023-10-19T20:33:06.745Z,20.42
2023-10-19T20:35:34.969Z,21.67
2023-10-19T20:38:04.043Z,21.38
2023-10-19T20:40:37.546Z,21.15
2023-10-19T20:43:06.561Z,20.83
2023-10-19T20:45:33.771Z,22.42
2023-10-19T20:48:03.030Z,27.00
2023-10-19T20:50:30.448Z,25.58
2023-10-19T20:53:02.057Z,26.05
2023-10-19T20:55:29.311Z,23.27
2023-10-19T20:57:56.573Z,21.58
2023-10-19T21:00:23.968Z,24.58
2023-10-19T21:02:51.950Z,25.02
2023-10-19T21:05:20.627Z,22.42
2023-10-19T21:07:48.689Z,21.02
2023-10-19T21:10:17.882Z,21.92
2023-10-19T21:12:45.259Z,22.17
2023-10-19T21:15:14.165Z,23.48
2023-10-19T21:17:46.614Z,22.20
2023-10-19T21:20:16.008Z,23.30
2023-10-19T21:23:19.223Z,22.42
2023-10-19T21:25:46.232Z,22.90
2023-10-19T21:28:13.416Z,23.20
2023-10-19T21:30:41.245Z,23.73
2023-10-19T21:33:11.616Z,23.70
2023-10-19T21:35:40.631Z,23.00
2023-10-19T21:38:07.946Z,24.45
2023-10-19T21:40:36.810Z,24.13
2023-10-19T21:43:03.985Z,23.83
2023-10-19T21:45:31.361Z,22.33
2023-10-19T21:47:58.510Z,21.92
2023-10-19T21:50:26.454Z,20.70
2023-10-19T21:52:53.469Z,21.25
2023-10-19T21:55:20.474Z,20.45
2023-10-19T21:57:47.649Z,21.20
2023-10-19T22:00:24.442Z,22.90
2023-10-19T22:03:09.208Z,22.70
2023-10-19T22:05:39.181Z,21.27
2023-10-19T22:08:10.526Z,22.00
2023-10-19T22:10:38.856Z,22.85
2023-10-19T22:13:06.179Z,21.88
2023-10-19T22:15:33.577Z,22.25
2023-10-19T22:18:00.688Z,22.52
2023-10-19T22:20:27.930Z,23.02
2023-10-19T22:22:55.611Z,22.17
2023-10-19T22:25:23.726Z,24.30
2023-10-19T22:27:54.295Z,23.50
2023-10-19T22:30:23.381Z,23.80
2023-10-19T22:32:52.454Z,23.33
2023-10-19T22:35:20.182Z,21.80
2023-10-19T22:37:48.591Z,23.25
2023-10-19T22:40:16.005Z,22.98
2023-10-19T22:42:43.398Z,23.48
2023-10-19T22:45:13.843Z,23.10
2023-10-19T22:47:42.407Z,23.92
2023-10-19T22:50:11.741Z,24.25
2023-10-19T22:52:39.278Z,22.88
2023-10-19T22:55:07.599Z,22.40
2023-10-19T22:57:34.756Z,23.05
2023-10-19T23:00:01.972Z,22.67
2023-10-19T23:02:29.198Z,22.48
2023-10-19T23:04:56.423Z,22.95
2023-10-19T23:07:23.553Z,22.23
2023-10-19T23:09:52.636Z,23.48
2023-10-19T23:12:19.634Z,24.05
2023-10-19T23:14:47.814Z,22.15
2023-10-19T23:17:24.030Z,24.45
2023-10-19T23:19:54.243Z,23.88
2023-10-19T23:22:21.870Z,24.08
2023-10-19T23:24:51.155Z,24.65
2023-10-19T23:27:18.756Z,24.83
2023-10-19T23:29:46.964Z,26.05
2023-10-19T23:32:15.344Z,24.00
2023-10-19T23:34:43.005Z,24.23
2023-10-19T23:37:15.023Z,25.30
2023-10-19T23:39:48.277Z,23.77
2023-10-19T23:42:15.851Z,24.33
2023-10-19T23:44:43.242Z,23.70
2023-10-19T23:47:11.992Z,26.00
2023-10-19T23:49:41.932Z,24.17
2023-10-19T23:52:09.128Z,24.58
2023-10-19T23:54:36.787Z,26.02
2023-10-19T23:57:04.263Z,23.10
2023-10-19T23:59:31.984Z,24.13
